sensor_id;sensor_type;location;lat;lon;timestamp;temperature;humidity
13389;DHT22;6764;53.250;10.410;2023-05-31T00:02:19;14.60;99.90
13389;DHT22;6764;53.250;10.410;2023-05-31T00:04:45;14.50;99.90
13389;DHT22;6764;53.250;10.410;2023-05-31T00:07:11;14.50;99.90
13389;DHT22;6764;53.250;10.410;2023-05-31T00:09:36;14.50;99.90
13389;DHT22;6764;53.250;10.410;2023-05-31T00:12:02;14.50;99.90
13389;DHT22;6764;53.250;10.410;2023-05-31T00:14:28;14.40;99.90
13389;DHT22;6764;53.250;10.410;2023-05-31T00:16:53;14.40;99.90
13389;DHT22;6764;53.250;10.410;2023-05-31T00:19:19;14.40;99.90
13389;DHT22;6764;53.250;10.410;2023-05-31T00:21:45;14.40;99.90
13389;DHT22;6764;53.250;10.410;2023-05-31T00:24:11;14.40;99.90
13389;DHT22;6764;53.250;10.410;2023-05-31T00:26:37;14.40;99.90
13389;DHT22;6764;53.250;10.410;2023-05-31T00:29:03;14.30;99.90
13389;DHT22;6764;53.250;10.410;2023-05-31T00:31:29;14.30;99.90
13389;DHT22;6764;53.250;10.410;2023-05-31T00:33:55;14.30;99.90
13389;DHT22;6764;53.250;10.410;2023-05-31T00:36:22;14.30;99.90
13389;DHT22;6764;53.250;10.410;2023-05-31T00:38:47;14.30;99.90
13389;DHT22;6764;53.250;10.410;2023-05-31T00:41:13;14.20;99.90
13389;DHT22;6764;53.250;10.410;2023-05-31T00:43:39;14.20;99.90
13389;DHT22;6764;53.250;10.410;2023-05-31T00:46:05;14.20;99.90
13389;DHT22;6764;53.250;10.410;2023-05-31T00:48:31;14.10;99.90
13389;DHT22;6764;53.250;10.410;2023-05-31T00:50:57;14.10;99.90
13389;DHT22;6764;53.250;10.410;2023-05-31T00:53:23;14.00;99.90
13389;DHT22;6764;53.250;10.410;2023-05-31T00:55:49;14.00;99.90
13389;DHT22;6764;53.250;10.410;2023-05-31T00:58:16;13.90;99.90
13389;DHT22;6764;53.250;10.410;2023-05-31T01:00:42;13.90;99.90
13389;DHT22;6764;53.250;10.410;2023-05-31T01:03:08;13.80;99.90
13389;DHT22;6764;53.250;10.410;2023-05-31T01:05:35;13.80;99.90
13389;DHT22;6764;53.250;10.410;2023-05-31T01:08:01;13.70;99.90
13389;DHT22;6764;53.250;10.410;2023-05-31T01:10:28;13.70;99.90
13389;DHT22;6764;53.250;10.410;2023-05-31T01:13:12;13.60;99.90
13389;DHT22;6764;53.250;10.410;2023-05-31T01:18:40;13.50;99.90
13389;DHT22;6764;53.250;10.410;2023-05-31T01:21:07;13.50;99.90
13389;DHT22;6764;53.250;10.410;2023-05-31T01:26:30;13.40;99.90
13389;DHT22;6764;53.250;10.410;2023-05-31T01:29:04;13.40;99.90
13389;DHT22;6764;53.250;10.410;2023-05-31T01:31:34;13.30;99.90
13389;DHT22;6764;53.250;10.410;2023-05-31T01:34:01;13.30;99.90
13389;DHT22;6764;53.250;10.410;2023-05-31T01:36:27;13.30;99.90
13389;DHT22;6764;53.250;10.410;2023-05-31T01:38:53;13.20;99.90
13389;DHT22;6764;53.250;10.410;2023-05-31T01:41:20;13.20;99.90
13389;DHT22;6764;53.250;10.410;2023-05-31T01:43:46;13.10;99.90
13389;DHT22;6764;53.250;10.410;2023-05-31T01:46:14;13.20;99.90
13389;DHT22;6764;53.250;10.410;2023-05-31T01:48:42;13.20;99.90
13389;DHT22;6764;53.250;10.410;2023-05-31T01:51:10;13.10;99.90
13389;DHT22;6764;53.250;10.410;2023-05-31T01:53:37;13.10;99.90
13389;DHT22;6764;53.250;10.410;2023-05-31T01:56:02;13.00;99.90
13389;DHT22;6764;53.250;10.410;2023-05-31T01:58:33;13.00;99.90
13389;DHT22;6764;53.250;10.410;2023-05-31T02:01:00;12.90;99.90
13389;DHT22;6764;53.250;10.410;2023-05-31T02:03:26;12.90;99.90
13389;DHT22;6764;53.250;10.410;2023-05-31T02:05:59;12.70;99.90
13389;DHT22;6764;53.250;10.410;2023-05-31T02:08:25;12.70;99.90
13389;DHT22;6764;53.250;10.410;2023-05-31T02:10:51;12.70;99.90
13389;DHT22;6764;53.250;10.410;2023-05-31T02:13:18;12.60;99.90
13389;DHT22;6764;53.250;10.410;2023-05-31T02:15:44;12.60;99.90
13389;DHT22;6764;53.250;10.410;2023-05-31T02:18:10;12.60;99.90
13389;DHT22;6764;53.250;10.410;2023-05-31T02:20:36;12.60;99.90
13389;DHT22;6764;53.250;10.410;2023-05-31T02:23:01;12.60;99.90
13389;DHT22;6764;53.250;10.410;2023-05-31T02:25:27;12.60;99.90
13389;DHT22;6764;53.250;10.410;2023-05-31T02:27:52;12.60;99.90
13389;DHT22;6764;53.250;10.410;2023-05-31T02:30:18;12.50;99.90
13389;DHT22;6764;53.250;10.410;2023-05-31T02:32:44;12.50;99.90
13389;DHT22;6764;53.250;10.410;2023-05-31T02:35:10;12.50;99.90
13389;DHT22;6764;53.250;10.410;2023-05-31T02:37:38;12.50;99.90
13389;DHT22;6764;53.250;10.410;2023-05-31T02:40:05;12.40;99.90
13389;DHT22;6764;53.250;10.410;2023-05-31T02:42:38;12.50;99.90
13389;DHT22;6764;53.250;10.410;2023-05-31T02:45:05;12.50;99.90
13389;DHT22;6764;53.250;10.410;2023-05-31T02:47:30;12.40;99.90
13389;DHT22;6764;53.250;10.410;2023-05-31T02:49:56;12.40;99.90
13389;DHT22;6764;53.250;10.410;2023-05-31T02:52:22;12.30;99.90
13389;DHT22;6764;53.250;10.410;2023-05-31T02:54:49;12.40;99.90
13389;DHT22;6764;53.250;10.410;2023-05-31T02:57:15;12.20;99.90
13389;DHT22;6764;53.250;10.410;2023-05-31T02:59:42;12.20;99.90
13389;DHT22;6764;53.250;10.410;2023-05-31T03:02:08;12.20;99.90
13389;DHT22;6764;53.250;10.410;2023-05-31T03:04:33;12.20;99.90
13389;DHT22;6764;53.250;10.410;2023-05-31T03:06:59;12.10;99.90
13389;DHT22;6764;53.250;10.410;2023-05-31T03:09:25;12.20;99.90
13389;DHT22;6764;53.250;10.410;2023-05-31T03:11:50;12.20;99.90
13389;DHT22;6764;53.250;10.410;2023-05-31T03:14:16;12.10;99.90
13389;DHT22;6764;53.250;10.410;2023-05-31T03:16:43;12.10;99.90
13389;DHT22;6764;53.250;10.410;2023-05-31T03:19:08;12.10;99.90
13389;DHT22;6764;53.250;10.410;2023-05-31T03:21:34;12.10;99.90
13389;DHT22;6764;53.250;10.410;2023-05-31T03:24:01;12.10;99.90
13389;DHT22;6764;53.250;10.410;2023-05-31T03:26:26;12.00;99.90
13389;DHT22;6764;53.250;10.410;2023-05-31T03:28:52;12.00;99.90
13389;DHT22;6764;53.250;10.410;2023-05-31T03:31:18;12.00;99.90
13389;DHT22;6764;53.250;10.410;2023-05-31T03:33:44;12.00;99.90
13389;DHT22;6764;53.250;10.410;2023-05-31T03:36:10;12.10;99.90
13389;DHT22;6764;53.250;10.410;2023-05-31T03:38:36;12.10;99.90
13389;DHT22;6764;53.250;10.410;2023-05-31T03:41:01;12.10;99.90
13389;DHT22;6764;53.250;10.410;2023-05-31T03:43:27;12.10;99.90
13389;DHT22;6764;53.250;10.410;2023-05-31T03:45:52;12.00;99.90
13389;DHT22;6764;53.250;10.410;2023-05-31T03:48:18;12.00;99.90
13389;DHT22;6764;53.250;10.410;2023-05-31T03:50:44;12.00;99.90
13389;DHT22;6764;53.250;10.410;2023-05-31T03:53:10;12.00;99.90
13389;DHT22;6764;53.250;10.410;2023-05-31T03:55:35;12.10;99.90
13389;DHT22;6764;53.250;10.410;2023-05-31T03:58:02;12.10;99.90
13389;DHT22;6764;53.250;10.410;2023-05-31T04:00:28;12.20;99.90
13389;DHT22;6764;53.250;10.410;2023-05-31T04:02:54;12.20;99.90
13389;DHT22;6764;53.250;10.410;2023-05-31T04:05:20;12.20;99.90
13389;DHT22;6764;53.250;10.410;2023-05-31T04:07:45;12.30;99.90
13389;DHT22;6764;53.250;10.410;2023-05-31T04:10:11;12.30;99.90
13389;DHT22;6764;53.250;10.410;2023-05-31T04:12:36;12.30;99.90
13389;DHT22;6764;53.250;10.410;2023-05-31T04:15:03;12.30;99.90
13389;DHT22;6764;53.250;10.410;2023-05-31T04:17:29;12.30;99.90
13389;DHT22;6764;53.250;10.410;2023-05-31T04:19:55;12.30;99.90
13389;DHT22;6764;53.250;10.410;2023-05-31T04:22:20;12.40;99.90
13389;DHT22;6764;53.250;10.410;2023-05-31T04:24:47;12.40;99.90
13389;DHT22;6764;53.250;10.410;2023-05-31T04:27:13;12.40;99.90
13389;DHT22;6764;53.250;10.410;2023-05-31T04:29:46;12.40;99.90
13389;DHT22;6764;53.250;10.410;2023-05-31T04:32:12;12.40;99.90
13389;DHT22;6764;53.250;10.410;2023-05-31T04:34:41;12.50;99.90
13389;DHT22;6764;53.250;10.410;2023-05-31T04:37:07;12.50;99.90
13389;DHT22;6764;53.250;10.410;2023-05-31T04:39:33;12.50;99.90
13389;DHT22;6764;53.250;10.410;2023-05-31T04:41:59;12.60;99.90
13389;DHT22;6764;53.250;10.410;2023-05-31T04:44:25;12.60;99.90
13389;DHT22;6764;53.250;10.410;2023-05-31T04:46:51;12.70;99.90
13389;DHT22;6764;53.250;10.410;2023-05-31T04:49:17;12.80;99.90
13389;DHT22;6764;53.250;10.410;2023-05-31T04:51:44;12.90;99.90
13389;DHT22;6764;53.250;10.410;2023-05-31T04:54:10;12.90;99.90
13389;DHT22;6764;53.250;10.410;2023-05-31T04:56:35;13.00;99.90
13389;DHT22;6764;53.250;10.410;2023-05-31T04:59:01;13.10;99.90
13389;DHT22;6764;53.250;10.410;2023-05-31T05:01:28;13.20;99.90
13389;DHT22;6764;53.250;10.410;2023-05-31T05:03:53;13.20;99.90
13389;DHT22;6764;53.250;10.410;2023-05-31T05:06:19;13.30;99.90
13389;DHT22;6764;53.250;10.410;2023-05-31T05:08:45;13.40;99.90
13389;DHT22;6764;53.250;10.410;2023-05-31T05:11:12;13.30;99.90
13389;DHT22;6764;53.250;10.410;2023-05-31T05:13:38;13.40;99.90
13389;DHT22;6764;53.250;10.410;2023-05-31T05:16:04;13.50;99.90
13389;DHT22;6764;53.250;10.410;2023-05-31T05:18:30;13.50;99.90
13389;DHT22;6764;53.250;10.410;2023-05-31T05:20:56;13.60;99.90
13389;DHT22;6764;53.250;10.410;2023-05-31T05:23:23;13.70;99.90
13389;DHT22;6764;53.250;10.410;2023-05-31T05:25:48;13.70;99.90
13389;DHT22;6764;53.250;10.410;2023-05-31T05:28:14;13.80;99.90
13389;DHT22;6764;53.250;10.410;2023-05-31T05:30:40;13.80;99.90
13389;DHT22;6764;53.250;10.410;2023-05-31T05:33:06;13.90;99.90
13389;DHT22;6764;53.250;10.410;2023-05-31T05:35:32;14.00;99.90
13389;DHT22;6764;53.250;10.410;2023-05-31T05:37:57;14.10;99.90
13389;DHT22;6764;53.250;10.410;2023-05-31T05:40:24;14.20;99.90
13389;DHT22;6764;53.250;10.410;2023-05-31T05:42:50;14.20;99.90
13389;DHT22;6764;53.250;10.410;2023-05-31T05:45:16;14.40;99.90
13389;DHT22;6764;53.250;10.410;2023-05-31T05:47:41;14.40;99.90
13389;DHT22;6764;53.250;10.410;2023-05-31T05:50:11;14.50;99.90
13389;DHT22;6764;53.250;10.410;2023-05-31T05:52:37;14.60;99.90
13389;DHT22;6764;53.250;10.410;2023-05-31T05:55:02;14.70;99.90
13389;DHT22;6764;53.250;10.410;2023-05-31T05:57:29;14.80;99.90
13389;DHT22;6764;53.250;10.410;2023-05-31T05:59:55;14.90;99.90
13389;DHT22;6764;53.250;10.410;2023-05-31T06:02:21;14.90;99.90
13389;DHT22;6764;53.250;10.410;2023-05-31T06:04:47;15.00;99.90
13389;DHT22;6764;53.250;10.410;2023-05-31T06:07:12;15.00;99.90
13389;DHT22;6764;53.250;10.410;2023-05-31T06:09:38;15.10;99.90
13389;DHT22;6764;53.250;10.410;2023-05-31T06:12:04;15.20;99.90
13389;DHT22;6764;53.250;10.410;2023-05-31T06:14:30;15.40;99.90
13389;DHT22;6764;53.250;10.410;2023-05-31T06:16:55;15.50;99.90
13389;DHT22;6764;53.250;10.410;2023-05-31T06:19:21;15.60;99.90
13389;DHT22;6764;53.250;10.410;2023-05-31T06:21:47;15.70;99.90
13389;DHT22;6764;53.250;10.410;2023-05-31T06:24:14;15.80;99.90
13389;DHT22;6764;53.250;10.410;2023-05-31T06:26:39;15.90;99.90
13389;DHT22;6764;53.250;10.410;2023-05-31T06:29:05;16.90;99.90
13389;DHT22;6764;53.250;10.410;2023-05-31T06:31:31;18.60;99.90
13389;DHT22;6764;53.250;10.410;2023-05-31T06:33:57;20.50;99.90
13389;DHT22;6764;53.250;10.410;2023-05-31T06:36:22;22.30;99.90
13389;DHT22;6764;53.250;10.410;2023-05-31T06:38:48;23.50;97.50
13389;DHT22;6764;53.250;10.410;2023-05-31T06:41:13;24.60;94.50
13389;DHT22;6764;53.250;10.410;2023-05-31T06:43:39;25.90;92.10
13389;DHT22;6764;53.250;10.410;2023-05-31T06:46:05;27.30;89.80
13389;DHT22;6764;53.250;10.410;2023-05-31T06:48:33;28.60;84.60
13389;DHT22;6764;53.250;10.410;2023-05-31T06:50:59;29.40;77.40
13389;DHT22;6764;53.250;10.410;2023-05-31T06:53:24;30.40;74.60
13389;DHT22;6764;53.250;10.410;2023-05-31T06:55:51;31.20;70.50
13389;DHT22;6764;53.250;10.410;2023-05-31T06:58:17;31.00;69.40
13389;DHT22;6764;53.250;10.410;2023-05-31T07:00:42;31.60;67.20
13389;DHT22;6764;53.250;10.410;2023-05-31T07:03:08;32.40;64.10
13389;DHT22;6764;53.250;10.410;2023-05-31T07:05:34;32.20;61.50
13389;DHT22;6764;53.250;10.410;2023-05-31T07:08:00;32.70;60.80
13389;DHT22;6764;53.250;10.410;2023-05-31T07:10:25;33.40;59.30
13389;DHT22;6764;53.250;10.410;2023-05-31T07:12:53;33.90;57.20
13389;DHT22;6764;53.250;10.410;2023-05-31T07:15:19;34.20;55.80
13389;DHT22;6764;53.250;10.410;2023-05-31T07:17:45;34.30;55.20
13389;DHT22;6764;53.250;10.410;2023-05-31T07:20:10;34.80;53.40
13389;DHT22;6764;53.250;10.410;2023-05-31T07:22:37;35.20;53.10
13389;DHT22;6764;53.250;10.410;2023-05-31T07:25:03;35.50;53.00
13389;DHT22;6764;53.250;10.410;2023-05-31T07:27:30;35.70;51.70
13389;DHT22;6764;53.250;10.410;2023-05-31T07:29:56;36.40;50.90
13389;DHT22;6764;53.250;10.410;2023-05-31T07:32:22;37.20;50.20
13389;DHT22;6764;53.250;10.410;2023-05-31T07:34:48;37.10;49.50
13389;DHT22;6764;53.250;10.410;2023-05-31T07:37:13;37.50;49.20
13389;DHT22;6764;53.250;10.410;2023-05-31T07:39:39;37.60;47.80
13389;DHT22;6764;53.250;10.410;2023-05-31T07:42:05;37.20;47.30
13389;DHT22;6764;53.250;10.410;2023-05-31T07:44:31;37.30;47.50
13389;DHT22;6764;53.250;10.410;2023-05-31T07:46:56;37.30;46.10
13389;DHT22;6764;53.250;10.410;2023-05-31T07:49:22;37.50;46.10
13389;DHT22;6764;53.250;10.410;2023-05-31T07:51:48;38.00;44.00
13389;DHT22;6764;53.250;10.410;2023-05-31T07:54:13;37.40;44.00
13389;DHT22;6764;53.250;10.410;2023-05-31T07:56:39;37.30;44.30
13389;DHT22;6764;53.250;10.410;2023-05-31T07:59:06;37.80;43.00
13389;DHT22;6764;53.250;10.410;2023-05-31T08:01:32;37.40;43.00
13389;DHT22;6764;53.250;10.410;2023-05-31T08:04:08;37.60;43.40
13389;DHT22;6764;53.250;10.410;2023-05-31T08:06:34;37.40;41.90
13389;DHT22;6764;53.250;10.410;2023-05-31T08:09:02;36.90;42.00
13389;DHT22;6764;53.250;10.410;2023-05-31T08:11:30;37.20;41.50
13389;DHT22;6764;53.250;10.410;2023-05-31T08:13:56;37.50;41.00
13389;DHT22;6764;53.250;10.410;2023-05-31T08:16:21;37.50;40.00
13389;DHT22;6764;53.250;10.410;2023-05-31T08:18:47;36.60;41.40
13389;DHT22;6764;53.250;10.410;2023-05-31T08:21:14;36.40;41.50
13389;DHT22;6764;53.250;10.410;2023-05-31T08:23:40;36.50;40.10
13389;DHT22;6764;53.250;10.410;2023-05-31T08:26:06;36.40;40.20
13389;DHT22;6764;53.250;10.410;2023-05-31T08:28:31;36.30;40.60
13389;DHT22;6764;53.250;10.410;2023-05-31T08:30:57;36.60;40.70
13389;DHT22;6764;53.250;10.410;2023-05-31T08:33:27;36.90;39.70
13389;DHT22;6764;53.250;10.410;2023-05-31T08:35:54;36.50;38.60
13389;DHT22;6764;53.250;10.410;2023-05-31T08:38:27;37.00;38.30
13389;DHT22;6764;53.250;10.410;2023-05-31T08:40:54;37.20;38.50
13389;DHT22;6764;53.250;10.410;2023-05-31T08:43:22;37.20;39.30
13389;DHT22;6764;53.250;10.410;2023-05-31T08:45:51;37.20;39.50
13389;DHT22;6764;53.250;10.410;2023-05-31T08:51:08;37.10;39.50
13389;DHT22;6764;53.250;10.410;2023-05-31T08:53:34;36.50;38.90
13389;DHT22;6764;53.250;10.410;2023-05-31T08:56:01;35.80;39.70
13389;DHT22;6764;53.250;10.410;2023-05-31T08:58:27;36.00;40.00
13389;DHT22;6764;53.250;10.410;2023-05-31T09:00:54;36.30;39.60
13389;DHT22;6764;53.250;10.410;2023-05-31T09:03:21;36.40;38.80
13389;DHT22;6764;53.250;10.410;2023-05-31T09:05:48;36.70;38.80
13389;DHT22;6764;53.250;10.410;2023-05-31T09:08:13;37.20;39.00
13389;DHT22;6764;53.250;10.410;2023-05-31T09:10:40;37.30;39.00
13389;DHT22;6764;53.250;10.410;2023-05-31T09:13:06;37.80;39.50
13389;DHT22;6764;53.250;10.410;2023-05-31T09:15:33;37.40;39.30
13389;DHT22;6764;53.250;10.410;2023-05-31T09:18:15;37.00;40.10
13389;DHT22;6764;53.250;10.410;2023-05-31T09:20:42;36.50;40.60
13389;DHT22;6764;53.250;10.410;2023-05-31T09:23:09;36.10;40.40
13389;DHT22;6764;53.250;10.410;2023-05-31T09:25:49;35.40;41.60
13389;DHT22;6764;53.250;10.410;2023-05-31T09:28:19;35.80;42.50
13389;DHT22;6764;53.250;10.410;2023-05-31T09:30:45;36.20;42.20
13389;DHT22;6764;53.250;10.410;2023-05-31T09:33:13;36.00;42.80
13389;DHT22;6764;53.250;10.410;2023-05-31T09:35:55;36.60;42.50
13389;DHT22;6764;53.250;10.410;2023-05-31T09:38:34;36.30;42.50
13389;DHT22;6764;53.250;10.410;2023-05-31T09:41:19;36.20;42.70
13389;DHT22;6764;53.250;10.410;2023-05-31T09:43:49;36.50;42.00
13389;DHT22;6764;53.250;10.410;2023-05-31T09:46:17;36.40;41.90
13389;DHT22;6764;53.250;10.410;2023-05-31T09:48:44;36.20;41.60
13389;DHT22;6764;53.250;10.410;2023-05-31T09:51:11;35.00;42.80
13389;DHT22;6764;53.250;10.410;2023-05-31T09:53:41;34.90;43.70
13389;DHT22;6764;53.250;10.410;2023-05-31T09:56:17;35.30;43.20
13389;DHT22;6764;53.250;10.410;2023-05-31T09:58:43;35.00;43.30
13389;DHT22;6764;53.250;10.410;2023-05-31T10:01:09;35.30;43.50
13389;DHT22;6764;53.250;10.410;2023-05-31T10:03:35;36.10;42.60
13389;DHT22;6764;53.250;10.410;2023-05-31T10:06:02;36.60;42.10
13389;DHT22;6764;53.250;10.410;2023-05-31T10:08:28;37.20;41.60
13389;DHT22;6764;53.250;10.410;2023-05-31T10:10:58;37.20;41.30
13389;DHT22;6764;53.250;10.410;2023-05-31T10:13:29;37.40;41.20
13389;DHT22;6764;53.250;10.410;2023-05-31T10:15:57;37.20;41.10
13389;DHT22;6764;53.250;10.410;2023-05-31T10:18:31;36.90;41.60
13389;DHT22;6764;53.250;10.410;2023-05-31T10:21:08;36.40;41.30
13389;DHT22;6764;53.250;10.410;2023-05-31T10:23:41;35.40;42.10
13389;DHT22;6764;53.250;10.410;2023-05-31T10:26:16;35.00;43.20
13389;DHT22;6764;53.250;10.410;2023-05-31T10:29:02;35.30;42.60
13389;DHT22;6764;53.250;10.410;2023-05-31T10:31:33;35.70;42.60
13389;DHT22;6764;53.250;10.410;2023-05-31T10:34:25;35.50;44.10
13389;DHT22;6764;53.250;10.410;2023-05-31T10:36:55;35.50;42.80
13389;DHT22;6764;53.250;10.410;2023-05-31T10:39:58;35.10;43.70
13389;DHT22;6764;53.250;10.410;2023-05-31T10:45:09;34.00;44.90
13389;DHT22;6764;53.250;10.410;2023-05-31T10:47:45;33.70;45.80
13389;DHT22;6764;53.250;10.410;2023-05-31T10:50:18;33.80;45.80
13389;DHT22;6764;53.250;10.410;2023-05-31T10:52:49;33.70;45.10
13389;DHT22;6764;53.250;10.410;2023-05-31T10:55:19;33.40;45.50
13389;DHT22;6764;53.250;10.410;2023-05-31T10:57:54;32.90;46.20
13389;DHT22;6764;53.250;10.410;2023-05-31T11:00:23;32.50;46.40
13389;DHT22;6764;53.250;10.410;2023-05-31T11:02:50;32.10;46.50
13389;DHT22;6764;53.250;10.410;2023-05-31T11:05:24;32.10;47.40
13389;DHT22;6764;53.250;10.410;2023-05-31T11:07:53;31.50;47.80
13389;DHT22;6764;53.250;10.410;2023-05-31T11:12:52;31.20;48.70
13389;DHT22;6764;53.250;10.410;2023-05-31T11:15:20;30.80;49.70
13389;DHT22;6764;53.250;10.410;2023-05-31T11:17:54;30.60;50.30
13389;DHT22;6764;53.250;10.410;2023-05-31T11:20:21;30.10;51.00
13389;DHT22;6764;53.250;10.410;2023-05-31T11:25:42;30.20;51.40
13389;DHT22;6764;53.250;10.410;2023-05-31T11:28:08;29.70;52.50
13389;DHT22;6764;53.250;10.410;2023-05-31T11:30:37;29.50;52.40
13389;DHT22;6764;53.250;10.410;2023-05-31T11:33:13;29.00;53.10
13389;DHT22;6764;53.250;10.410;2023-05-31T11:35:39;28.60;54.20
13389;DHT22;6764;53.250;10.410;2023-05-31T11:38:06;28.70;54.10
13389;DHT22;6764;53.250;10.410;2023-05-31T11:40:32;28.50;55.10
13389;DHT22;6764;53.250;10.410;2023-05-31T11:43:06;28.20;55.50
13389;DHT22;6764;53.250;10.410;2023-05-31T11:45:33;27.90;56.20
13389;DHT22;6764;53.250;10.410;2023-05-31T11:48:17;27.50;57.00
13389;DHT22;6764;53.250;10.410;2023-05-31T11:50:46;27.40;57.40
13389;DHT22;6764;53.250;10.410;2023-05-31T11:53:11;27.50;57.50
13389;DHT22;6764;53.250;10.410;2023-05-31T11:55:38;27.60;56.50
13389;DHT22;6764;53.250;10.410;2023-05-31T11:58:09;27.80;56.80
13389;DHT22;6764;53.250;10.410;2023-05-31T12:00:43;27.80;56.80
13389;DHT22;6764;53.250;10.410;2023-05-31T12:03:14;27.80;57.10
13389;DHT22;6764;53.250;10.410;2023-05-31T12:05:40;27.80;56.70
13389;DHT22;6764;53.250;10.410;2023-05-31T12:08:06;27.80;56.90
13389;DHT22;6764;53.250;10.410;2023-05-31T12:10:38;27.20;56.50
13389;DHT22;6764;53.250;10.410;2023-05-31T12:13:04;27.10;57.00
13389;DHT22;6764;53.250;10.410;2023-05-31T12:15:30;27.10;55.80
13389;DHT22;6764;53.250;10.410;2023-05-31T12:17:59;26.90;55.50
13389;DHT22;6764;53.250;10.410;2023-05-31T12:20:33;27.00;55.50
13389;DHT22;6764;53.250;10.410;2023-05-31T12:23:15;27.10;55.90
13389;DHT22;6764;53.250;10.410;2023-05-31T12:25:48;27.30;54.80
13389;DHT22;6764;53.250;10.410;2023-05-31T12:28:18;27.40;54.80
13389;DHT22;6764;53.250;10.410;2023-05-31T12:30:47;27.10;54.10
13389;DHT22;6764;53.250;10.410;2023-05-31T12:33:13;27.00;54.70
13389;DHT22;6764;53.250;10.410;2023-05-31T12:35:40;26.90;54.50
13389;DHT22;6764;53.250;10.410;2023-05-31T12:38:06;26.80;55.10
13389;DHT22;6764;53.250;10.410;2023-05-31T12:40:37;26.80;55.00
13389;DHT22;6764;53.250;10.410;2023-05-31T12:43:02;26.90;53.70
13389;DHT22;6764;53.250;10.410;2023-05-31T12:45:28;26.70;54.10
13389;DHT22;6764;53.250;10.410;2023-05-31T12:47:58;26.80;54.40
13389;DHT22;6764;53.250;10.410;2023-05-31T12:50:27;26.70;54.60
13389;DHT22;6764;53.250;10.410;2023-05-31T12:52:57;26.60;54.80
13389;DHT22;6764;53.250;10.410;2023-05-31T12:55:23;26.60;54.70
13389;DHT22;6764;53.250;10.410;2023-05-31T12:57:48;26.70;54.90
13389;DHT22;6764;53.250;10.410;2023-05-31T13:00:14;26.50;54.10
13389;DHT22;6764;53.250;10.410;2023-05-31T13:02:43;26.50;54.50
13389;DHT22;6764;53.250;10.410;2023-05-31T13:05:09;26.60;54.40
13389;DHT22;6764;53.250;10.410;2023-05-31T13:07:35;26.60;55.10
13389;DHT22;6764;53.250;10.410;2023-05-31T13:10:04;26.30;56.00
13389;DHT22;6764;53.250;10.410;2023-05-31T13:12:32;26.20;56.30
13389;DHT22;6764;53.250;10.410;2023-05-31T13:14:58;26.40;56.50
13389;DHT22;6764;53.250;10.410;2023-05-31T13:17:24;26.30;56.50
13389;DHT22;6764;53.250;10.410;2023-05-31T13:19:49;26.00;56.60
13389;DHT22;6764;53.250;10.410;2023-05-31T13:22:15;26.10;56.50
13389;DHT22;6764;53.250;10.410;2023-05-31T13:24:40;26.10;56.20
13389;DHT22;6764;53.250;10.410;2023-05-31T13:27:06;26.20;55.70
13389;DHT22;6764;53.250;10.410;2023-05-31T13:29:32;26.20;54.70
13389;DHT22;6764;53.250;10.410;2023-05-31T13:31:58;26.30;55.50
13389;DHT22;6764;53.250;10.410;2023-05-31T13:34:24;26.20;55.50
13389;DHT22;6764;53.250;10.410;2023-05-31T13:36:50;26.40;56.10
13389;DHT22;6764;53.250;10.410;2023-05-31T13:39:16;26.50;56.20
13389;DHT22;6764;53.250;10.410;2023-05-31T13:41:42;26.60;55.70
13389;DHT22;6764;53.250;10.410;2023-05-31T13:44:08;26.50;56.30
13389;DHT22;6764;53.250;10.410;2023-05-31T13:46:34;26.60;55.80
13389;DHT22;6764;53.250;10.410;2023-05-31T13:49:00;26.50;55.50
13389;DHT22;6764;53.250;10.410;2023-05-31T13:51:25;26.40;55.60
13389;DHT22;6764;53.250;10.410;2023-05-31T13:53:51;26.30;54.90
13389;DHT22;6764;53.250;10.410;2023-05-31T13:56:16;26.30;55.50
13389;DHT22;6764;53.250;10.410;2023-05-31T13:58:42;26.30;56.10
13389;DHT22;6764;53.250;10.410;2023-05-31T14:01:08;26.20;56.00
13389;DHT22;6764;53.250;10.410;2023-05-31T14:03:34;26.10;56.30
13389;DHT22;6764;53.250;10.410;2023-05-31T14:06:00;26.10;56.70
13389;DHT22;6764;53.250;10.410;2023-05-31T14:08:26;26.10;56.90
13389;DHT22;6764;53.250;10.410;2023-05-31T14:10:52;26.10;57.10
13389;DHT22;6764;53.250;10.410;2023-05-31T14:13:18;26.10;57.10
13389;DHT22;6764;53.250;10.410;2023-05-31T14:15:44;26.00;59.20
13389;DHT22;6764;53.250;10.410;2023-05-31T14:18:10;25.90;60.20
13389;DHT22;6764;53.250;10.410;2023-05-31T14:20:36;26.00;59.70
13389;DHT22;6764;53.250;10.410;2023-05-31T14:23:05;26.10;60.10
13389;DHT22;6764;53.250;10.410;2023-05-31T14:25:30;26.10;60.60
13389;DHT22;6764;53.250;10.410;2023-05-31T14:27:56;26.00;60.90
13389;DHT22;6764;53.250;10.410;2023-05-31T14:30:25;26.00;60.80
13389;DHT22;6764;53.250;10.410;2023-05-31T14:32:52;26.10;61.40
13389;DHT22;6764;53.250;10.410;2023-05-31T14:35:18;26.10;62.60
13389;DHT22;6764;53.250;10.410;2023-05-31T14:37:44;26.10;63.00
13389;DHT22;6764;53.250;10.410;2023-05-31T14:40:10;26.00;63.30
13389;DHT22;6764;53.250;10.410;2023-05-31T14:42:35;25.80;63.80
13389;DHT22;6764;53.250;10.410;2023-05-31T14:45:01;25.70;64.00
13389;DHT22;6764;53.250;10.410;2023-05-31T14:47:30;25.70;65.00
13389;DHT22;6764;53.250;10.410;2023-05-31T14:49:58;25.70;64.50
13389;DHT22;6764;53.250;10.410;2023-05-31T14:52:24;25.70;64.40
13389;DHT22;6764;53.250;10.410;2023-05-31T14:54:50;25.70;64.90
13389;DHT22;6764;53.250;10.410;2023-05-31T14:57:15;25.70;64.70
13389;DHT22;6764;53.250;10.410;2023-05-31T14:59:41;25.70;65.40
13389;DHT22;6764;53.250;10.410;2023-05-31T15:02:07;25.60;65.20
13389;DHT22;6764;53.250;10.410;2023-05-31T15:04:33;25.60;65.40
13389;DHT22;6764;53.250;10.410;2023-05-31T15:06:59;25.70;66.30
13389;DHT22;6764;53.250;10.410;2023-05-31T15:09:25;25.60;65.90
13389;DHT22;6764;53.250;10.410;2023-05-31T15:11:50;25.40;65.80
13389;DHT22;6764;53.250;10.410;2023-05-31T15:14:16;25.40;66.40
13389;DHT22;6764;53.250;10.410;2023-05-31T15:16:42;25.30;64.80
13389;DHT22;6764;53.250;10.410;2023-05-31T15:19:08;25.30;64.70
13389;DHT22;6764;53.250;10.410;2023-05-31T15:21:33;25.20;64.50
13389;DHT22;6764;53.250;10.410;2023-05-31T15:23:59;25.30;64.60
13389;DHT22;6764;53.250;10.410;2023-05-31T15:26:24;25.40;64.30
13389;DHT22;6764;53.250;10.410;2023-05-31T15:28:50;25.40;64.00
13389;DHT22;6764;53.250;10.410;2023-05-31T15:31:16;25.40;63.50
13389;DHT22;6764;53.250;10.410;2023-05-31T15:33:41;25.20;62.50
13389;DHT22;6764;53.250;10.410;2023-05-31T15:36:07;25.20;62.50
13389;DHT22;6764;53.250;10.410;2023-05-31T15:38:33;25.20;62.00
13389;DHT22;6764;53.250;10.410;2023-05-31T15:40:59;25.10;62.10
13389;DHT22;6764;53.250;10.410;2023-05-31T15:43:26;25.00;62.30
13389;DHT22;6764;53.250;10.410;2023-05-31T15:45:52;25.00;62.30
13389;DHT22;6764;53.250;10.410;2023-05-31T15:48:18;24.90;62.70